Time;durP1;ratioP1;P1;durP2;ratioP2;P2;SDS_P1;SDS_P2;PMS_P1;PMS_P2;Temp;Humidity;BMP_temperature;BMP_pressure;BME280_temperature;BME280_humidity;BME280_pressure;Samples;Min_cycle;Max_cycle;Signal;HPM_P1;HPM_P2
2021/05/07 00:00:37;;;;;;;1.73;0.80;;;;;;;;;;4982405;28;20113;-73
2021/05/07 00:03:04;;;;;;;2.08;1.00;;;;;;;;;;4982553;28;20057;-73
2021/05/07 00:05:31;;;;;;;1.65;0.85;;;;;;;;;;4979082;28;20069;-72
2021/05/07 00:07:58;;;;;;;3.05;0.93;;;;;;;;;;4997288;28;20068;-72
2021/05/07 00:10:25;;;;;;;2.40;1.00;;;;;;;;;;4992542;28;20466;-73
2021/05/07 00:12:52;;;;;;;1.63;1.10;;;;;;;;;;5000631;28;20066;-72
2021/05/07 00:15:18;;;;;;;2.00;1.10;;;;;;;;;;4984771;28;20085;-72
2021/05/07 00:17:45;;;;;;;1.52;1.00;;;;;;;;;;4983884;28;20066;-72
2021/05/07 00:20:11;;;;;;;1.33;0.90;;;;;;;;;;4984542;28;20062;-72
2021/05/07 00:22:40;;;;;;;2.17;1.20;;;;;;;;;;4983617;28;20116;-73
2021/05/07 00:25:07;;;;;;;2.35;1.00;;;;;;;;;;4983593;28;20576;-72
2021/05/07 00:27:33;;;;;;;1.67;1.08;;;;;;;;;;4980672;28;20089;-72
2021/05/07 00:30:00;;;;;;;1.38;0.80;;;;;;;;;;4983288;28;20451;-72
2021/05/07 00:32:26;;;;;;;1.75;1.00;;;;;;;;;;4982373;28;20119;-73
2021/05/07 00:34:53;;;;;;;1.40;0.88;;;;;;;;;;4984311;28;20502;-72
2021/05/07 00:37:19;;;;;;;2.40;0.95;;;;;;;;;;4984825;28;20038;-72
2021/05/07 00:39:45;;;;;;;2.38;1.10;;;;;;;;;;4990557;28;20125;-72
2021/05/07 00:42:12;;;;;;;0.93;0.70;;;;;;;;;;4992963;28;20053;-72
2021/05/07 00:44:39;;;;;;;1.65;0.85;;;;;;;;;;4991770;28;20070;-72
2021/05/07 00:47:05;;;;;;;3.08;1.08;;;;;;;;;;4990419;28;20057;-71
2021/05/07 00:49:33;;;;;;;1.40;0.80;;;;;;;;;;4981557;28;20105;-73
2021/05/07 00:52:00;;;;;;;1.95;1.10;;;;;;;;;;5002835;28;20057;-73
2021/05/07 00:54:26;;;;;;;1.83;1.00;;;;;;;;;;4988821;28;20089;-73
2021/05/07 00:56:53;;;;;;;1.92;1.00;;;;;;;;;;4987144;28;20053;-72
2021/05/07 00:59:19;;;;;;;1.52;0.90;;;;;;;;;;4988264;28;20108;-72
2021/05/07 01:01:45;;;;;;;1.67;1.08;;;;;;;;;;4985388;28;20453;-73
2021/05/07 01:04:12;;;;;;;2.42;0.93;;;;;;;;;;4990372;28;20085;-72
2021/05/07 01:06:38;;;;;;;1.80;0.93;;;;;;;;;;4990139;28;20506;-72
2021/05/07 01:09:05;;;;;;;1.00;0.70;;;;;;;;;;4990995;28;20108;-73
2021/05/07 01:11:32;;;;;;;1.45;0.80;;;;;;;;;;4989219;28;20062;-73
2021/05/07 01:13:59;;;;;;;3.03;0.90;;;;;;;;;;4990765;28;20075;-73
2021/05/07 01:16:27;;;;;;;1.15;0.80;;;;;;;;;;4990452;28;20505;-73
2021/05/07 01:18:54;;;;;;;1.05;0.70;;;;;;;;;;4989648;28;20049;-73
2021/05/07 01:21:21;;;;;;;1.27;0.75;;;;;;;;;;4991513;28;20045;-73
2021/05/07 01:23:47;;;;;;;2.25;0.80;;;;;;;;;;5003319;28;20097;-73
2021/05/07 01:26:14;;;;;;;1.40;0.90;;;;;;;;;;4989324;28;20066;-73
2021/05/07 01:28:40;;;;;;;1.15;0.70;;;;;;;;;;4987743;28;20065;-72
2021/05/07 01:31:07;;;;;;;1.58;0.80;;;;;;;;;;4988791;28;20453;-71
2021/05/07 01:33:34;;;;;;;1.52;0.90;;;;;;;;;;4990141;28;20077;-72
2021/05/07 01:36:01;;;;;;;2.22;0.95;;;;;;;;;;4991802;28;20097;-72
2021/05/07 01:38:27;;;;;;;1.10;0.70;;;;;;;;;;4988512;28;20193;-72
2021/05/07 01:40:54;;;;;;;1.90;0.80;;;;;;;;;;4990985;28;20070;-71
2021/05/07 01:43:21;;;;;;;1.35;0.68;;;;;;;;;;4991740;28;20073;-71
2021/05/07 01:45:48;;;;;;;0.82;0.70;;;;;;;;;;4989681;28;20108;-71
2021/05/07 01:48:15;;;;;;;1.02;0.60;;;;;;;;;;5004145;28;20146;-71
2021/05/07 01:50:45;;;;;;;1.83;0.70;;;;;;;;;;4988375;28;20054;-71
2021/05/07 01:53:11;;;;;;;1.20;0.80;;;;;;;;;;4989671;28;20070;-71
2021/05/07 01:55:42;;;;;;;1.63;0.90;;;;;;;;;;4978527;28;20655;-71
2021/05/07 01:58:10;;;;;;;1.17;0.73;;;;;;;;;;4987306;28;20176;-71
2021/05/07 02:00:39;;;;;;;1.42;0.80;;;;;;;;;;4984372;28;20124;-71
2021/05/07 02:03:06;;;;;;;0.95;0.65;;;;;;;;;;4984364;28;20169;-71
2021/05/07 02:05:32;;;;;;;1.17;0.70;;;;;;;;;;4994079;28;20247;-72
2021/05/07 02:07:59;;;;;;;1.15;0.70;;;;;;;;;;4983031;28;20074;-71
2021/05/07 02:10:27;;;;;;;1.15;0.70;;;;;;;;;;4987157;28;20060;-71
2021/05/07 02:12:55;;;;;;;1.33;0.80;;;;;;;;;;4988512;28;20179;-71
2021/05/07 02:15:22;;;;;;;1.60;0.80;;;;;;;;;;4987346;28;20383;-71
2021/05/07 02:17:49;;;;;;;2.83;0.80;;;;;;;;;;4985014;28;20538;-71
2021/05/07 02:20:16;;;;;;;1.45;0.70;;;;;;;;;;4987362;28;20058;-72
2021/05/07 02:22:43;;;;;;;1.27;0.65;;;;;;;;;;4985899;28;20060;-71
2021/05/07 02:25:11;;;;;;;1.25;0.80;;;;;;;;;;4987154;28;20045;-71
2021/05/07 02:27:37;;;;;;;0.93;0.60;;;;;;;;;;4983487;28;20062;-71
2021/05/07 02:30:05;;;;;;;1.05;0.63;;;;;;;;;;4984570;28;20058;-71
2021/05/07 02:32:32;;;;;;;1.50;0.80;;;;;;;;;;4967651;28;20046;-72
2021/05/07 02:34:58;;;;;;;2.30;0.90;;;;;;;;;;4985463;28;20049;-71
2021/05/07 02:37:24;;;;;;;2.80;0.90;;;;;;;;;;4984579;28;20088;-72
2021/05/07 02:39:51;;;;;;;1.35;0.90;;;;;;;;;;4986363;28;20054;-71
2021/05/07 02:42:17;;;;;;;1.77;1.00;;;;;;;;;;4985689;28;20524;-72
2021/05/07 02:44:44;;;;;;;1.33;0.77;;;;;;;;;;5016228;28;20073;-72
2021/05/07 02:47:10;;;;;;;1.30;0.90;;;;;;;;;;4986461;28;20073;-71
2021/05/07 02:49:37;;;;;;;1.05;0.75;;;;;;;;;;5005715;28;20590;-72
2021/05/07 02:52:04;;;;;;;1.02;0.80;;;;;;;;;;4985929;28;20061;-71
2021/05/07 02:54:30;;;;;;;0.77;0.60;;;;;;;;;;4981551;28;20070;-72
2021/05/07 02:56:57;;;;;;;1.23;0.80;;;;;;;;;;4984743;28;20447;-71
2021/05/07 02:59:24;;;;;;;1.75;0.93;;;;;;;;;;4984310;28;20062;-72
2021/05/07 03:01:51;;;;;;;1.38;0.73;;;;;;;;;;4984394;28;20438;-71
2021/05/07 03:04:20;;;;;;;1.40;0.70;;;;;;;;;;4985704;28;20132;-71
2021/05/07 03:06:47;;;;;;;0.80;0.70;;;;;;;;;;4976305;28;20049;-71
2021/05/07 03:09:14;;;;;;;0.88;0.65;;;;;;;;;;4984980;28;20062;-72
2021/05/07 03:11:40;;;;;;;0.95;0.65;;;;;;;;;;4984942;28;20505;-72
2021/05/07 03:14:07;;;;;;;1.63;0.88;;;;;;;;;;4986813;28;20140;-71
2021/05/07 03:16:34;;;;;;;2.25;0.90;;;;;;;;;;4975109;28;20062;-71
2021/05/07 03:19:00;;;;;;;1.20;0.70;;;;;;;;;;4984146;28;20106;-71
2021/05/07 03:21:27;;;;;;;1.75;0.77;;;;;;;;;;4984694;28;20450;-71
2021/05/07 03:23:53;;;;;;;1.67;0.70;;;;;;;;;;4985125;28;20072;-71
2021/05/07 03:26:20;;;;;;;0.93;0.65;;;;;;;;;;4983255;28;20066;-71
2021/05/07 03:28:46;;;;;;;1.40;0.70;;;;;;;;;;4976373;28;20062;-71
2021/05/07 03:31:12;;;;;;;1.52;0.60;;;;;;;;;;4983787;28;20132;-72
2021/05/07 03:33:39;;;;;;;1.30;0.60;;;;;;;;;;4972628;28;20561;-72
2021/05/07 03:36:06;;;;;;;1.20;0.70;;;;;;;;;;4980521;28;20118;-72
2021/05/07 03:38:32;;;;;;;1.50;0.80;;;;;;;;;;4980765;28;20073;-71
2021/05/07 03:40:59;;;;;;;1.17;0.63;;;;;;;;;;4980848;28;20057;-71
2021/05/07 03:43:25;;;;;;;0.90;0.60;;;;;;;;;;4991046;28;20398;-72
2021/05/07 03:45:52;;;;;;;1.08;0.77;;;;;;;;;;4983644;28;20119;-71
2021/05/07 03:48:20;;;;;;;0.93;0.70;;;;;;;;;;4984579;28;20062;-71
2021/05/07 03:50:54;;;;;;;0.85;0.60;;;;;;;;;;4956063;28;20358;-71
2021/05/07 03:53:22;;;;;;;0.80;0.60;;;;;;;;;;4961652;28;20568;-71
2021/05/07 03:55:48;;;;;;;1.13;0.75;;;;;;;;;;4983118;28;20074;-71
2021/05/07 03:58:15;;;;;;;1.65;0.60;;;;;;;;;;4981232;28;20042;-71
2021/05/07 04:00:41;;;;;;;1.58;0.80;;;;;;;;;;4996889;28;20054;-72
2021/05/07 04:03:08;;;;;;;1.83;0.80;;;;;;;;;;4984421;28;20038;-71
2021/05/07 04:05:35;;;;;;;1.67;0.70;;;;;;;;;;4984185;28;20073;-71
2021/05/07 04:08:10;;;;;;;1.48;0.70;;;;;;;;;;4983812;28;20049;-72
2021/05/07 04:10:43;;;;;;;1.83;0.68;;;;;;;;;;4982585;28;20073;-72
2021/05/07 04:15:39;;;;;;;1.83;0.80;;;;;;;;;;4983729;28;20094;-70
2021/05/07 04:18:06;;;;;;;1.30;0.70;;;;;;;;;;4984324;28;20073;-72
2021/05/07 04:20:32;;;;;;;1.65;0.70;;;;;;;;;;4982556;28;20061;-73
2021/05/07 04:22:58;;;;;;;1.85;0.70;;;;;;;;;;4981635;28;20057;-73
2021/05/07 04:25:25;;;;;;;1.65;0.70;;;;;;;;;;4983986;28;20061;-72
2021/05/07 04:27:51;;;;;;;1.13;0.70;;;;;;;;;;4979073;28;20058;-72
2021/05/07 04:30:18;;;;;;;1.45;0.80;;;;;;;;;;4984536;28;20771;-71
2021/05/07 04:32:44;;;;;;;1.67;0.60;;;;;;;;;;4981156;28;20085;-72
2021/05/07 04:35:11;;;;;;;1.05;0.60;;;;;;;;;;4984005;28;20065;-71
2021/05/07 04:37:37;;;;;;;1.98;0.75;;;;;;;;;;4982792;28;20054;-72
2021/05/07 04:40:04;;;;;;;2.35;0.88;;;;;;;;;;4982003;28;20038;-70
2021/05/07 04:42:30;;;;;;;1.58;0.85;;;;;;;;;;4982200;28;20066;-72
2021/05/07 04:44:56;;;;;;;1.17;0.63;;;;;;;;;;4985495;28;20316;-71
2021/05/07 04:47:23;;;;;;;2.17;0.70;;;;;;;;;;4980665;28;20054;-71
2021/05/07 04:49:49;;;;;;;1.20;0.60;;;;;;;;;;4983123;28;20496;-71
2021/05/07 04:52:16;;;;;;;1.70;0.60;;;;;;;;;;4982791;28;20046;-72
2021/05/07 04:54:42;;;;;;;2.08;0.77;;;;;;;;;;4983387;28;20475;-71
2021/05/07 04:57:08;;;;;;;1.30;0.52;;;;;;;;;;4983709;28;20112;-71
2021/05/07 04:59:35;;;;;;;1.85;0.60;;;;;;;;;;4978909;28;20046;-72
2021/05/07 05:02:01;;;;;;;2.08;0.70;;;;;;;;;;4983789;28;20062;-71
2021/05/07 05:04:28;;;;;;;2.10;0.68;;;;;;;;;;4995827;28;20062;-71
2021/05/07 05:06:54;;;;;;;1.50;0.68;;;;;;;;;;4996339;28;20093;-71
2021/05/07 05:09:20;;;;;;;1.60;0.70;;;;;;;;;;4983514;28;20149;-72
2021/05/07 05:11:47;;;;;;;1.27;0.60;;;;;;;;;;4983574;28;20541;-72
2021/05/07 05:14:13;;;;;;;1.65;0.70;;;;;;;;;;4983718;28;20069;-74
2021/05/07 05:16:40;;;;;;;1.02;0.57;;;;;;;;;;4980786;28;20077;-71
2021/05/07 05:19:06;;;;;;;0.75;0.63;;;;;;;;;;4989723;28;20070;-72
2021/05/07 05:21:32;;;;;;;1.20;0.70;;;;;;;;;;4983397;28;20061;-72
2021/05/07 05:24:00;;;;;;;1.52;0.60;;;;;;;;;;4984670;28;20069;-72
2021/05/07 05:26:26;;;;;;;2.55;0.85;;;;;;;;;;4985572;28;20062;-72
2021/05/07 05:28:52;;;;;;;2.38;0.60;;;;;;;;;;4988046;28;20058;-72
2021/05/07 05:31:19;;;;;;;1.00;0.63;;;;;;;;;;4983801;28;20178;-72
2021/05/07 05:33:45;;;;;;;0.93;0.55;;;;;;;;;;4987026;28;20069;-72
2021/05/07 05:36:12;;;;;;;1.67;0.60;;;;;;;;;;4988268;28;20058;-72
2021/05/07 05:38:38;;;;;;;1.08;0.60;;;;;;;;;;5002050;28;20066;-72
2021/05/07 05:41:04;;;;;;;1.00;0.70;;;;;;;;;;4986544;28;20026;-73
2021/05/07 05:43:31;;;;;;;1.00;0.68;;;;;;;;;;4985515;28;20054;-72
2021/05/07 05:45:57;;;;;;;1.23;0.70;;;;;;;;;;4979116;28;20085;-72
2021/05/07 05:48:24;;;;;;;0.75;0.60;;;;;;;;;;4987077;28;20069;-71
2021/05/07 05:50:51;;;;;;;1.17;0.68;;;;;;;;;;4986540;28;20088;-72
2021/05/07 05:53:18;;;;;;;1.08;0.55;;;;;;;;;;4959953;28;20038;-72
2021/05/07 05:55:44;;;;;;;0.80;0.63;;;;;;;;;;4968019;28;20124;-72
2021/05/07 05:58:11;;;;;;;3.13;0.60;;;;;;;;;;4979107;28;20521;-72
2021/05/07 06:00:38;;;;;;;0.90;0.60;;;;;;;;;;4983890;28;20149;-72
2021/05/07 06:03:05;;;;;;;1.75;0.70;;;;;;;;;;4980712;28;20109;-72
2021/05/07 06:05:32;;;;;;;0.88;0.60;;;;;;;;;;4984172;28;20482;-73
2021/05/07 06:07:58;;;;;;;1.23;0.70;;;;;;;;;;4986308;28;20196;-72
2021/05/07 06:10:25;;;;;;;0.82;0.70;;;;;;;;;;4984333;28;20054;-73
2021/05/07 06:12:51;;;;;;;1.15;0.77;;;;;;;;;;4986742;28;20042;-72
2021/05/07 06:15:18;;;;;;;2.67;0.63;;;;;;;;;;4985551;28;20066;-72
2021/05/07 06:17:45;;;;;;;0.95;0.70;;;;;;;;;;4985464;28;20978;-72
2021/05/07 06:20:13;;;;;;;1.52;0.60;;;;;;;;;;4980783;28;20042;-72
2021/05/07 06:22:39;;;;;;;0.63;0.55;;;;;;;;;;4985197;28;20066;-72
2021/05/07 06:25:07;;;;;;;0.85;0.55;;;;;;;;;;4982811;28;20150;-72
2021/05/07 06:27:34;;;;;;;2.72;0.75;;;;;;;;;;4988109;28;20046;-72
2021/05/07 06:30:01;;;;;;;2.28;0.60;;;;;;;;;;4985676;28;20046;-72
2021/05/07 06:32:27;;;;;;;1.17;0.70;;;;;;;;;;4985486;28;20070;-72
2021/05/07 06:34:53;;;;;;;2.58;0.80;;;;;;;;;;4986210;28;20120;-72
2021/05/07 06:37:20;;;;;;;0.85;0.50;;;;;;;;;;4985393;28;20647;-72
2021/05/07 06:39:46;;;;;;;1.25;0.70;;;;;;;;;;4982472;28;20066;-72
2021/05/07 06:42:13;;;;;;;0.90;0.70;;;;;;;;;;4987143;28;20493;-71
2021/05/07 06:44:39;;;;;;;0.93;0.50;;;;;;;;;;4981321;28;20106;-72
2021/05/07 06:47:05;;;;;;;1.55;0.60;;;;;;;;;;4986470;28;20568;-72
2021/05/07 06:49:32;;;;;;;1.60;0.63;;;;;;;;;;4985855;28;20124;-72
2021/05/07 06:51:58;;;;;;;1.08;0.55;;;;;;;;;;4986391;28;20050;-72
2021/05/07 06:54:26;;;;;;;1.23;0.60;;;;;;;;;;4983318;28;20819;-72
2021/05/07 06:56:56;;;;;;;0.90;0.60;;;;;;;;;;4984549;28;20058;-72
2021/05/07 06:59:23;;;;;;;0.65;0.50;;;;;;;;;;4983382;28;20096;-73
2021/05/07 07:01:50;;;;;;;1.30;0.80;;;;;;;;;;4983593;28;20062;-73
2021/05/07 07:04:17;;;;;;;1.80;0.60;;;;;;;;;;4999579;28;20526;-73
2021/05/07 07:06:43;;;;;;;0.95;0.50;;;;;;;;;;4983305;28;20070;-73
2021/05/07 07:09:11;;;;;;;1.83;0.70;;;;;;;;;;4983721;28;20070;-73
2021/05/07 07:11:37;;;;;;;1.30;0.52;;;;;;;;;;4984674;28;20061;-73
2021/05/07 07:14:04;;;;;;;0.90;0.70;;;;;;;;;;5000476;28;20089;-72
2021/05/07 07:16:31;;;;;;;0.75;0.57;;;;;;;;;;4981923;28;20431;-72
2021/05/07 07:18:57;;;;;;;0.73;0.52;;;;;;;;;;4978593;28;20081;-73
2021/05/07 07:21:24;;;;;;;0.90;0.50;;;;;;;;;;4981793;28;20133;-73
2021/05/07 07:23:50;;;;;;;1.05;0.70;;;;;;;;;;4982923;28;21315;-73
2021/05/07 07:26:16;;;;;;;0.70;0.60;;;;;;;;;;4986735;28;20108;-72
2021/05/07 07:28:46;;;;;;;1.23;0.60;;;;;;;;;;4976160;28;20494;-72
2021/05/07 07:31:12;;;;;;;0.88;0.50;;;;;;;;;;4981255;28;20086;-72
2021/05/07 07:33:39;;;;;;;0.40;0.40;;;;;;;;;;4983760;28;20423;-72
2021/05/07 07:36:05;;;;;;;1.15;0.60;;;;;;;;;;4982777;28;20116;-72
2021/05/07 07:38:32;;;;;;;2.13;0.50;;;;;;;;;;4983078;28;20062;-73
2021/05/07 07:40:58;;;;;;;1.60;0.70;;;;;;;;;;4998602;28;20038;-72
2021/05/07 07:43:25;;;;;;;0.85;0.50;;;;;;;;;;4982786;28;20406;-72
2021/05/07 07:45:51;;;;;;;0.60;0.50;;;;;;;;;;4977896;28;20050;-73
2021/05/07 07:48:17;;;;;;;1.02;0.60;;;;;;;;;;4983278;28;20061;-73
2021/05/07 07:50:44;;;;;;;1.10;0.57;;;;;;;;;;4982267;28;20069;-72
2021/05/07 07:53:11;;;;;;;1.33;0.60;;;;;;;;;;4979978;28;20047;-72
2021/05/07 07:55:37;;;;;;;0.68;0.50;;;;;;;;;;4982716;28;20124;-73
2021/05/07 07:58:04;;;;;;;0.75;0.57;;;;;;;;;;4981363;28;20114;-73
2021/05/07 08:00:32;;;;;;;0.75;0.50;;;;;;;;;;5000011;28;20057;-73
2021/05/07 08:02:59;;;;;;;3.30;0.70;;;;;;;;;;4977320;28;20120;-73
2021/05/07 08:05:25;;;;;;;2.58;0.57;;;;;;;;;;4985415;28;20093;-74
2021/05/07 08:07:51;;;;;;;1.20;0.45;;;;;;;;;;4981909;28;20070;-73
2021/05/07 08:10:18;;;;;;;0.60;0.50;;;;;;;;;;4985118;28;20058;-73
2021/05/07 08:12:45;;;;;;;1.33;0.50;;;;;;;;;;4984334;28;21242;-72
2021/05/07 08:15:12;;;;;;;0.90;0.60;;;;;;;;;;4985091;28;20146;-73
2021/05/07 08:17:39;;;;;;;1.92;0.60;;;;;;;;;;4982972;28;20501;-72
2021/05/07 08:20:06;;;;;;;0.65;0.43;;;;;;;;;;4985317;28;20061;-72
2021/05/07 08:22:32;;;;;;;1.23;0.55;;;;;;;;;;4983499;28;20072;-73
2021/05/07 08:24:59;;;;;;;1.08;0.50;;;;;;;;;;4984308;28;20066;-73
2021/05/07 08:27:25;;;;;;;1.63;0.50;;;;;;;;;;4982410;28;20034;-75
2021/05/07 08:29:52;;;;;;;2.42;0.60;;;;;;;;;;4980966;28;20058;-73
2021/05/07 08:32:18;;;;;;;2.40;0.60;;;;;;;;;;4976812;28;20528;-73
2021/05/07 08:34:45;;;;;;;2.17;0.90;;;;;;;;;;4981450;28;20081;-74
2021/05/07 08:37:12;;;;;;;1.25;0.70;;;;;;;;;;4983003;28;20081;-72
2021/05/07 08:39:39;;;;;;;1.60;0.70;;;;;;;;;;4981663;28;20050;-73
2021/05/07 08:42:12;;;;;;;2.65;0.52;;;;;;;;;;4983830;28;20058;-72
2021/05/07 08:44:39;;;;;;;2.28;0.90;;;;;;;;;;4980351;28;20517;-73
2021/05/07 08:47:05;;;;;;;1.60;0.60;;;;;;;;;;4984688;28;20062;-72
2021/05/07 08:49:32;;;;;;;1.98;0.52;;;;;;;;;;4983440;28;20780;-73
2021/05/07 08:51:58;;;;;;;1.13;0.52;;;;;;;;;;4982887;28;20081;-73
2021/05/07 08:54:28;;;;;;;1.85;0.70;;;;;;;;;;4978208;28;20506;-72
2021/05/07 08:56:55;;;;;;;2.13;0.70;;;;;;;;;;4983617;28;20062;-72
2021/05/07 08:59:22;;;;;;;3.75;0.85;;;;;;;;;;4982638;28;20576;-73
2021/05/07 09:01:49;;;;;;;2.78;0.80;;;;;;;;;;5003051;28;20065;-72
2021/05/07 09:04:16;;;;;;;1.40;0.50;;;;;;;;;;4988216;28;20070;-72
2021/05/07 09:06:53;;;;;;;1.38;0.65;;;;;;;;;;4968275;28;20457;-72
2021/05/07 09:09:28;;;;;;;1.45;0.50;;;;;;;;;;4988445;28;20095;-72
2021/05/07 09:11:55;;;;;;;2.53;0.70;;;;;;;;;;4985289;28;20034;-72
2021/05/07 09:14:22;;;;;;;1.33;0.52;;;;;;;;;;4988674;28;20066;-73
2021/05/07 09:16:49;;;;;;;1.80;0.57;;;;;;;;;;4987873;28;20058;-73
2021/05/07 09:19:20;;;;;;;1.23;0.70;;;;;;;;;;4987930;28;20070;-72
2021/05/07 09:21:46;;;;;;;1.58;0.50;;;;;;;;;;4987061;28;20058;-72
2021/05/07 09:24:13;;;;;;;1.60;0.60;;;;;;;;;;4969509;28;20031;-73
2021/05/07 09:26:47;;;;;;;2.65;0.75;;;;;;;;;;4986767;28;20447;-72
2021/05/07 09:29:20;;;;;;;2.17;0.50;;;;;;;;;;4987284;28;20070;-72
2021/05/07 09:31:48;;;;;;;1.25;0.60;;;;;;;;;;4986970;28;20065;-73
2021/05/07 09:34:15;;;;;;;1.45;0.50;;;;;;;;;;4987962;28;20062;-73
2021/05/07 09:36:42;;;;;;;0.80;0.43;;;;;;;;;;4985389;28;20727;-73
2021/05/07 09:39:13;;;;;;;0.88;0.40;;;;;;;;;;4987311;28;20321;-73
2021/05/07 09:41:40;;;;;;;1.70;0.40;;;;;;;;;;4986978;28;20523;-74
2021/05/07 09:44:19;;;;;;;0.80;0.40;;;;;;;;;;5000843;28;20573;-73
2021/05/07 09:46:46;;;;;;;2.05;0.77;;;;;;;;;;4985509;28;20066;-73
2021/05/07 09:49:31;;;;;;;1.88;0.40;;;;;;;;;;4982081;28;20216;-73
2021/05/07 09:51:59;;;;;;;1.83;0.70;;;;;;;;;;4982445;28;20054;-74
2021/05/07 09:54:25;;;;;;;1.67;0.57;;;;;;;;;;4986551;28;20071;-74
2021/05/07 09:56:54;;;;;;;1.23;0.50;;;;;;;;;;4987132;28;20054;-74
2021/05/07 09:59:21;;;;;;;0.77;0.60;;;;;;;;;;4985659;28;20061;-74
2021/05/07 10:01:48;;;;;;;2.30;0.50;;;;;;;;;;4979290;28;20454;-73
2021/05/07 10:04:15;;;;;;;1.13;0.70;;;;;;;;;;4987457;28;20433;-73
2021/05/07 10:06:42;;;;;;;1.10;0.43;;;;;;;;;;4985071;28;20062;-73
2021/05/07 10:09:09;;;;;;;2.08;0.63;;;;;;;;;;5001622;28;20120;-73
2021/05/07 10:11:40;;;;;;;4.18;0.50;;;;;;;;;;4966534;28;20058;-73
2021/05/07 10:14:08;;;;;;;1.80;0.50;;;;;;;;;;4986642;28;20074;-72
2021/05/07 10:16:35;;;;;;;3.05;0.50;;;;;;;;;;4995314;28;20061;-73
2021/05/07 10:19:03;;;;;;;1.10;0.57;;;;;;;;;;4986155;28;20066;-72
2021/05/07 10:21:35;;;;;;;2.22;0.45;;;;;;;;;;4986299;28;20058;-73
2021/05/07 10:24:01;;;;;;;0.90;0.40;;;;;;;;;;4985205;28;20058;-71
2021/05/07 10:26:48;;;;;;;0.82;0.50;;;;;;;;;;4980260;28;20117;-72
2021/05/07 10:29:22;;;;;;;1.45;0.30;;;;;;;;;;4997883;28;20081;-73
2021/05/07 10:31:53;;;;;;;4.40;0.50;;;;;;;;;;4981155;28;20058;-74
2021/05/07 10:34:21;;;;;;;0.97;0.40;;;;;;;;;;4972868;28;20462;-73
2021/05/07 10:36:50;;;;;;;2.05;0.52;;;;;;;;;;4989647;28;20175;-71
2021/05/07 10:39:18;;;;;;;0.80;0.38;;;;;;;;;;4983551;28;20065;-72
2021/05/07 10:41:44;;;;;;;0.60;0.40;;;;;;;;;;4984665;28;20040;-72
2021/05/07 10:44:13;;;;;;;1.35;0.50;;;;;;;;;;4986445;28;20074;-71
2021/05/07 10:46:40;;;;;;;1.35;0.65;;;;;;;;;;4979990;28;20058;-72
2021/05/07 10:49:06;;;;;;;1.08;0.40;;;;;;;;;;5000728;28;20129;-72
2021/05/07 10:51:33;;;;;;;2.00;0.40;;;;;;;;;;4984732;28;20058;-72
2021/05/07 10:54:06;;;;;;;0.43;0.38;;;;;;;;;;4986193;28;20380;-72
2021/05/07 10:56:35;;;;;;;1.85;0.50;;;;;;;;;;4983612;28;20108;-72
2021/05/07 10:59:10;;;;;;;1.83;0.50;;;;;;;;;;5001847;28;20038;-72
2021/05/07 11:01:37;;;;;;;1.33;0.40;;;;;;;;;;4982389;28;20485;-72
2021/05/07 11:04:04;;;;;;;0.43;0.25;;;;;;;;;;4998531;28;20070;-72
2021/05/07 11:06:32;;;;;;;0.47;0.30;;;;;;;;;;4996224;28;20114;-72
2021/05/07 11:08:58;;;;;;;1.98;0.50;;;;;;;;;;4973702;28;20576;-72
2021/05/07 11:11:25;;;;;;;1.10;0.40;;;;;;;;;;4983583;28;20034;-72
2021/05/07 11:13:51;;;;;;;1.05;0.40;;;;;;;;;;5000652;28;20057;-72
2021/05/07 11:16:18;;;;;;;0.77;0.40;;;;;;;;;;4983771;28;20144;-72
2021/05/07 11:18:47;;;;;;;0.60;0.43;;;;;;;;;;4984392;28;20545;-72
2021/05/07 11:21:15;;;;;;;1.70;0.45;;;;;;;;;;4983402;28;20058;-72
2021/05/07 11:23:41;;;;;;;1.25;0.30;;;;;;;;;;4981829;28;20455;-72
2021/05/07 11:26:08;;;;;;;0.75;0.40;;;;;;;;;;4986190;28;20109;-72
2021/05/07 11:28:41;;;;;;;0.50;0.30;;;;;;;;;;4983898;28;20070;-73
2021/05/07 11:31:08;;;;;;;0.47;0.30;;;;;;;;;;4964313;28;20137;-72
2021/05/07 11:33:35;;;;;;;1.15;0.50;;;;;;;;;;4980621;28;20070;-73
2021/05/07 11:36:12;;;;;;;1.10;0.28;;;;;;;;;;4986133;28;20132;-73
2021/05/07 11:38:39;;;;;;;0.80;0.28;;;;;;;;;;4976257;28;20054;-73
2021/05/07 11:41:16;;;;;;;0.52;0.35;;;;;;;;;;4983490;28;20066;-72
2021/05/07 11:43:42;;;;;;;0.82;0.40;;;;;;;;;;4981345;28;20120;-73
2021/05/07 11:46:09;;;;;;;0.70;0.40;;;;;;;;;;4983499;28;20074;-72
2021/05/07 11:48:36;;;;;;;2.45;0.40;;;;;;;;;;4982647;28;20116;-72
2021/05/07 11:51:06;;;;;;;0.98;0.43;;;;;;;;;;4982497;28;20073;-72
2021/05/07 11:53:33;;;;;;;0.75;0.40;;;;;;;;;;4979773;28;20054;-72
2021/05/07 11:56:00;;;;;;;1.00;0.47;;;;;;;;;;4976580;28;20594;-72
2021/05/07 11:58:33;;;;;;;0.93;0.40;;;;;;;;;;4982571;28;20094;-74
2021/05/07 12:01:00;;;;;;;0.20;0.15;;;;;;;;;;4985348;28;20125;-72
2021/05/07 12:03:37;;;;;;;0.82;0.40;;;;;;;;;;4999603;28;20038;-74
2021/05/07 12:06:13;;;;;;;0.98;0.40;;;;;;;;;;4984995;28;20553;-72
2021/05/07 12:08:39;;;;;;;1.45;0.35;;;;;;;;;;4977065;28;20529;-72
2021/05/07 12:11:10;;;;;;;2.58;0.50;;;;;;;;;;4985175;28;20120;-72
2021/05/07 12:13:36;;;;;;;1.90;0.30;;;;;;;;;;4982124;28;20076;-72
2021/05/07 12:16:03;;;;;;;0.50;0.50;;;;;;;;;;4974205;28;20144;-72
2021/05/07 12:18:34;;;;;;;2.25;0.30;;;;;;;;;;4983630;28;20101;-72
2021/05/07 12:21:01;;;;;;;0.65;0.38;;;;;;;;;;4984512;28;20498;-72
2021/05/07 12:23:48;;;;;;;1.08;0.35;;;;;;;;;;4982149;28;20140;-73
2021/05/07 12:26:15;;;;;;;0.70;0.40;;;;;;;;;;4986622;28;20038;-72
2021/05/07 12:28:52;;;;;;;0.60;0.28;;;;;;;;;;4996930;28;20454;-72
2021/05/07 12:31:19;;;;;;;0.75;0.45;;;;;;;;;;4985099;28;20062;-72
2021/05/07 12:33:45;;;;;;;0.50;0.30;;;;;;;;;;4983768;28;20050;-72
2021/05/07 12:36:15;;;;;;;2.20;0.40;;;;;;;;;;4984270;28;20117;-72
2021/05/07 12:38:42;;;;;;;0.70;0.40;;;;;;;;;;4983405;28;20073;-72
2021/05/07 12:41:13;;;;;;;1.42;0.40;;;;;;;;;;4980603;28;20077;-72
2021/05/07 12:43:48;;;;;;;0.68;0.28;;;;;;;;;;4982275;28;20124;-72
2021/05/07 12:46:15;;;;;;;1.45;0.32;;;;;;;;;;4971747;28;20045;-72
2021/05/07 12:48:46;;;;;;;2.05;0.38;;;;;;;;;;4982830;28;20054;-72
2021/05/07 12:51:12;;;;;;;1.88;0.38;;;;;;;;;;4984680;28;20552;-73
2021/05/07 12:53:41;;;;;;;1.20;0.60;;;;;;;;;;4982002;28;20102;-73
2021/05/07 12:56:08;;;;;;;0.65;0.20;;;;;;;;;;4984642;28;20128;-72
2021/05/07 12:58:34;;;;;;;2.85;0.40;;;;;;;;;;4980171;28;20195;-73
2021/05/07 13:01:01;;;;;;;0.28;0.20;;;;;;;;;;4996456;28;20097;-73
2021/05/07 13:03:27;;;;;;;0.30;0.30;;;;;;;;;;4982153;28;20086;-74
2021/05/07 13:05:54;;;;;;;0.77;0.40;;;;;;;;;;4988552;28;20053;-73
2021/05/07 13:08:20;;;;;;;1.40;0.50;;;;;;;;;;4986845;28;20066;-74
2021/05/07 13:10:48;;;;;;;2.38;0.40;;;;;;;;;;4981604;28;20065;-74
2021/05/07 13:13:14;;;;;;;1.95;0.40;;;;;;;;;;4983711;28;20057;-74
2021/05/07 13:15:41;;;;;;;0.90;0.40;;;;;;;;;;4980966;28;20069;-72
2021/05/07 13:18:08;;;;;;;0.55;0.40;;;;;;;;;;4979387;28;20062;-74
2021/05/07 13:20:35;;;;;;;0.43;0.30;;;;;;;;;;4978256;28;20031;-74
2021/05/07 13:23:02;;;;;;;0.93;0.40;;;;;;;;;;4983203;28;20092;-74
2021/05/07 13:25:28;;;;;;;1.35;0.35;;;;;;;;;;4997351;28;20066;-74
2021/05/07 13:27:55;;;;;;;0.57;0.32;;;;;;;;;;4983483;28;20045;-73
2021/05/07 13:30:23;;;;;;;1.95;0.57;;;;;;;;;;4982977;28;20517;-73
2021/05/07 13:32:50;;;;;;;2.45;0.50;;;;;;;;;;4989790;28;20053;-72
2021/05/07 13:35:17;;;;;;;0.47;0.30;;;;;;;;;;4981680;28;20120;-73
2021/05/07 13:37:46;;;;;;;1.00;0.50;;;;;;;;;;4997719;28;20035;-73
2021/05/07 13:40:14;;;;;;;2.47;0.55;;;;;;;;;;4981672;28;20116;-73
2021/05/07 13:42:40;;;;;;;0.95;0.55;;;;;;;;;;4980544;28;20046;-73
2021/05/07 13:45:08;;;;;;;1.35;0.50;;;;;;;;;;4998118;28;20094;-73
2021/05/07 13:47:35;;;;;;;0.68;0.40;;;;;;;;;;4985580;28;20093;-73
2021/05/07 13:50:02;;;;;;;0.82;0.40;;;;;;;;;;4987706;28;20159;-73
2021/05/07 13:52:28;;;;;;;1.45;0.50;;;;;;;;;;4984157;28;20112;-72
2021/05/07 13:54:54;;;;;;;1.42;0.60;;;;;;;;;;4985086;28;20077;-72
2021/05/07 13:57:21;;;;;;;0.55;0.30;;;;;;;;;;4986577;28;20069;-73
2021/05/07 13:59:47;;;;;;;1.20;0.35;;;;;;;;;;5001113;28;20206;-74
2021/05/07 14:02:14;;;;;;;0.93;0.32;;;;;;;;;;4985453;28;20413;-73
2021/05/07 14:04:40;;;;;;;0.43;0.32;;;;;;;;;;4984230;28;20828;-74
2021/05/07 14:07:07;;;;;;;1.42;0.50;;;;;;;;;;4984244;28;20116;-72
2021/05/07 14:09:33;;;;;;;1.02;0.50;;;;;;;;;;4969510;28;20190;-73
2021/05/07 14:12:00;;;;;;;0.73;0.40;;;;;;;;;;4983316;28;20046;-73
2021/05/07 14:14:26;;;;;;;0.63;0.47;;;;;;;;;;4985213;28;20072;-73
2021/05/07 14:16:52;;;;;;;0.60;0.60;;;;;;;;;;4982102;28;20155;-73
2021/05/07 14:19:19;;;;;;;0.38;0.30;;;;;;;;;;5000233;28;20104;-72
2021/05/07 14:21:51;;;;;;;1.52;0.40;;;;;;;;;;4984980;28;20065;-73
2021/05/07 14:24:17;;;;;;;0.77;0.50;;;;;;;;;;4984019;28;20038;-72
2021/05/07 14:26:44;;;;;;;1.30;0.52;;;;;;;;;;4983237;28;20049;-73
2021/05/07 14:29:10;;;;;;;0.70;0.40;;;;;;;;;;4985752;28;20529;-73
2021/05/07 14:31:37;;;;;;;0.52;0.32;;;;;;;;;;4984794;28;20072;-73
2021/05/07 14:34:04;;;;;;;1.55;0.40;;;;;;;;;;4984411;28;20129;-73
2021/05/07 14:36:30;;;;;;;1.20;0.50;;;;;;;;;;5000090;28;20066;-72
2021/05/07 14:38:57;;;;;;;0.75;0.50;;;;;;;;;;4977770;28;20063;-73
2021/05/07 14:41:23;;;;;;;4.72;0.50;;;;;;;;;;4984108;28;20070;-73
2021/05/07 14:43:49;;;;;;;1.45;0.57;;;;;;;;;;4985018;28;20551;-73
2021/05/07 14:46:16;;;;;;;0.73;0.50;;;;;;;;;;4984200;28;20066;-73